createdAt,value
2023-05-21T00:00:00.776Z,25.00
2023-05-21T00:01:00.822Z,25.00
2023-05-21T00:02:00.861Z,0.00
2023-05-21T00:03:00.950Z,0.00
2023-05-21T00:04:01.147Z,0.00
2023-05-21T00:05:01.009Z,0.00
2023-05-21T00:06:01.103Z,0.00
2023-05-21T00:07:01.114Z,0.00
2023-05-21T00:08:01.171Z,7.09
2023-05-21T00:09:01.232Z,25.00
2023-05-21T00:10:01.274Z,25.00
2023-05-21T00:11:01.366Z,25.52
2023-05-21T00:12:01.406Z,25.00
2023-05-21T00:13:01.438Z,26.53
2023-05-21T00:14:01.479Z,25.00
2023-05-21T00:15:01.562Z,25.00
2023-05-21T00:16:01.615Z,26.82
2023-05-21T00:17:01.629Z,24.99
2023-05-21T00:18:01.681Z,23.61
2023-05-21T00:19:01.751Z,25.86
2023-05-21T00:20:01.713Z,25.88
2023-05-21T00:21:01.799Z,26.67
2023-05-21T00:22:01.802Z,25.27
2023-05-21T00:23:01.822Z,25.00
2023-05-21T00:24:01.864Z,27.66
2023-05-21T00:25:01.878Z,25.00
2023-05-21T00:26:01.911Z,25.11
2023-05-21T00:27:01.957Z,26.14
2023-05-21T00:28:01.998Z,27.29
2023-05-21T00:29:02.014Z,27.89
2023-05-21T00:30:02.053Z,26.61
2023-05-21T00:31:02.074Z,25.00
2023-05-21T00:32:02.198Z,27.02
2023-05-21T00:33:02.233Z,25.09
2023-05-21T00:34:02.152Z,26.22
2023-05-21T00:35:02.209Z,25.23
2023-05-21T00:36:02.206Z,27.11
2023-05-21T00:37:02.229Z,25.38
2023-05-21T00:38:02.269Z,24.34
2023-05-21T00:39:02.319Z,28.05
2023-05-21T00:40:02.403Z,25.60
2023-05-21T00:41:02.354Z,26.21
2023-05-21T00:42:02.402Z,26.92
2023-05-21T00:43:02.416Z,27.29
2023-05-21T00:44:02.465Z,25.32
2023-05-21T00:45:02.493Z,28.91
2023-05-21T00:46:02.535Z,29.06
2023-05-21T00:47:02.636Z,29.34
2023-05-21T00:48:02.698Z,27.60
2023-05-21T00:49:02.690Z,28.78
2023-05-21T00:50:02.727Z,26.62
2023-05-21T00:51:02.773Z,25.00
2023-05-21T00:52:02.793Z,28.09
2023-05-21T00:53:02.840Z,25.60
2023-05-21T00:54:02.878Z,26.62
2023-05-21T00:55:02.903Z,26.00
2023-05-21T00:56:02.934Z,29.09
2023-05-21T00:57:02.957Z,29.52
2023-05-21T00:58:02.988Z,25.25
2023-05-21T00:59:03.032Z,31.01
2023-05-21T01:00:03.123Z,28.02
2023-05-21T01:01:03.173Z,29.87
2023-05-21T01:02:03.131Z,27.84
2023-05-21T01:03:03.212Z,28.15
2023-05-21T01:04:03.156Z,27.69
2023-05-21T01:05:03.168Z,25.16
2023-05-21T01:06:03.189Z,26.98
2023-05-21T01:07:03.220Z,27.61
2023-05-21T01:08:03.243Z,25.80
2023-05-21T01:09:04.943Z,27.08
2023-05-21T01:10:03.228Z,30.01
2023-05-21T01:11:03.212Z,28.01
2023-05-21T01:12:03.208Z,27.67
2023-05-21T01:13:03.208Z,25.00
2023-05-21T01:14:03.194Z,26.84
2023-05-21T01:15:03.179Z,25.00
2023-05-21T01:16:03.212Z,30.58
2023-05-21T01:17:03.229Z,27.18
2023-05-21T01:18:03.242Z,25.96
2023-05-21T01:19:03.325Z,26.88
2023-05-21T01:20:03.156Z,31.01
2023-05-21T01:21:03.156Z,25.79
2023-05-21T01:22:03.155Z,26.21
2023-05-21T01:23:03.134Z,26.93
2023-05-21T01:24:03.130Z,26.30
2023-05-21T01:25:03.142Z,25.89
2023-05-21T01:26:03.121Z,25.00
2023-05-21T01:27:03.122Z,29.83
2023-05-21T01:28:03.093Z,28.97
2023-05-21T01:29:03.084Z,28.20
2023-05-21T01:30:03.079Z,29.57
2023-05-21T01:31:03.076Z,27.66
2023-05-21T01:32:03.107Z,28.27
2023-05-21T01:33:03.233Z,29.40
2023-05-21T01:34:03.114Z,25.00
2023-05-21T01:35:03.053Z,28.13
2023-05-21T01:36:03.065Z,28.64
2023-05-21T01:37:03.034Z,27.82
2023-05-21T01:38:03.026Z,29.30
2023-05-21T01:39:03.037Z,28.98
2023-05-21T01:40:03.039Z,26.94
2023-05-21T01:41:03.005Z,25.24
2023-05-21T01:42:03.004Z,29.26
2023-05-21T01:43:02.993Z,27.87
2023-05-21T01:44:02.997Z,31.10
2023-05-21T01:45:03.002Z,27.75
2023-05-21T01:46:03.008Z,29.35
2023-05-21T01:47:02.976Z,29.42
2023-05-21T01:48:03.048Z,28.33
2023-05-21T01:49:02.953Z,27.40
2023-05-21T01:50:02.954Z,28.69
2023-05-21T01:51:02.963Z,28.52
2023-05-21T01:52:02.959Z,27.10
2023-05-21T01:53:02.942Z,27.61
2023-05-21T01:54:02.931Z,30.85
2023-05-21T01:55:02.969Z,27.00
2023-05-21T01:56:02.974Z,25.84
2023-05-21T01:57:02.910Z,24.63
2023-05-21T01:58:02.914Z,30.21
2023-05-21T01:59:02.898Z,28.42
2023-05-21T02:00:02.890Z,29.14
2023-05-21T02:01:02.884Z,29.64
2023-05-21T02:02:02.909Z,26.48
2023-05-21T02:03:03.007Z,28.60
2023-05-21T02:04:02.996Z,28.69
2023-05-21T02:05:02.853Z,27.95
2023-05-21T02:06:02.853Z,27.46
2023-05-21T02:07:02.841Z,27.02
2023-05-21T02:08:02.837Z,28.50
2023-05-21T02:09:02.837Z,29.45
2023-05-21T02:10:02.819Z,30.61
2023-05-21T02:11:02.822Z,30.91
2023-05-21T02:12:02.806Z,27.14
2023-05-21T02:13:02.813Z,26.76
2023-05-21T02:14:02.807Z,28.60
2023-05-21T02:15:02.788Z,27.96
2023-05-21T02:16:02.853Z,27.14
2023-05-21T02:17:03.524Z,28.99
2023-05-21T02:18:02.814Z,27.94
2023-05-21T02:19:02.795Z,27.78
2023-05-21T02:20:02.849Z,26.31
2023-05-21T02:21:02.870Z,28.18
2023-05-21T02:22:02.900Z,27.74
2023-05-21T02:23:02.936Z,31.23
2023-05-21T02:24:02.961Z,30.41
2023-05-21T02:25:02.996Z,27.25
2023-05-21T02:26:03.028Z,27.68
2023-05-21T02:27:03.079Z,28.47
2023-05-21T02:28:03.036Z,29.50
2023-05-21T02:29:03.053Z,26.01
2023-05-21T02:30:03.064Z,30.09
2023-05-21T02:31:03.107Z,28.88
2023-05-21T02:32:03.098Z,31.36
2023-05-21T02:33:03.186Z,28.06
2023-05-21T02:34:03.147Z,29.36
2023-05-21T02:35:03.164Z,28.79
2023-05-21T02:36:03.227Z,27.64
2023-05-21T02:37:03.202Z,29.60
2023-05-21T02:38:03.265Z,26.93
2023-05-21T02:39:03.240Z,25.93
2023-05-21T02:40:03.256Z,30.29
2023-05-21T02:41:03.263Z,30.29
2023-05-21T02:42:03.274Z,29.73
2023-05-21T02:43:03.280Z,27.63
2023-05-21T02:44:03.303Z,30.30
2023-05-21T02:45:03.346Z,30.03
2023-05-21T02:46:03.433Z,28.31
2023-05-21T02:47:03.366Z,28.00
2023-05-21T02:48:03.394Z,26.73
2023-05-21T02:49:03.380Z,26.39
2023-05-21T02:50:03.387Z,29.39
2023-05-21T02:51:03.406Z,26.14
2023-05-21T02:52:03.417Z,31.25
2023-05-21T02:53:04.032Z,27.36
2023-05-21T02:54:03.404Z,28.06
2023-05-21T02:55:03.431Z,27.91
2023-05-21T02:56:03.412Z,28.65
2023-05-21T02:57:03.403Z,29.22
2023-05-21T02:58:03.420Z,27.17
2023-05-21T02:59:03.430Z,28.02
2023-05-21T03:00:03.439Z,29.16
2023-05-21T03:01:03.476Z,25.82
2023-05-21T03:02:03.457Z,26.38
2023-05-21T03:03:03.571Z,32.27
2023-05-21T03:04:03.473Z,31.01
2023-05-21T03:05:03.492Z,30.75
2023-05-21T03:06:03.486Z,28.72
2023-05-21T03:07:03.504Z,29.32
2023-05-21T03:08:03.528Z,28.92
2023-05-21T03:09:03.500Z,27.41
2023-05-21T03:10:03.494Z,26.99
2023-05-21T03:11:03.485Z,26.96
2023-05-21T03:12:03.498Z,28.98
2023-05-21T03:13:03.565Z,29.10
2023-05-21T03:14:03.509Z,27.72
2023-05-21T03:15:03.534Z,29.01
2023-05-21T03:16:03.527Z,28.29
2023-05-21T03:17:03.590Z,30.36
2023-05-21T03:18:03.608Z,30.34
2023-05-21T03:19:03.560Z,28.76
2023-05-21T03:20:03.531Z,30.57
2023-05-21T03:21:03.534Z,28.24
2023-05-21T03:22:03.545Z,25.00
2023-05-21T03:23:03.553Z,27.57
2023-05-21T03:24:03.584Z,29.23
2023-05-21T03:25:03.560Z,30.30
2023-05-21T03:26:03.590Z,28.59
2023-05-21T03:27:03.578Z,25.00
2023-05-21T03:28:03.599Z,28.46
2023-05-21T03:29:03.591Z,29.99
2023-05-21T03:30:05.333Z,30.87
2023-05-21T03:31:03.614Z,31.05
2023-05-21T03:32:03.670Z,31.10
2023-05-21T03:33:03.653Z,30.77
2023-05-21T03:34:03.586Z,31.97
2023-05-21T03:35:03.586Z,30.49
2023-05-21T03:36:03.574Z,30.73
2023-05-21T03:37:03.569Z,27.48
2023-05-21T03:38:03.590Z,25.48
2023-05-21T03:39:03.559Z,29.14
2023-05-21T03:40:03.638Z,27.15
2023-05-21T03:41:03.558Z,30.83
2023-05-21T03:42:03.537Z,28.03
2023-05-21T03:43:03.529Z,30.77
2023-05-21T03:44:03.532Z,28.36
2023-05-21T03:45:03.528Z,31.02
2023-05-21T03:46:03.545Z,28.24
2023-05-21T03:47:03.508Z,27.46
2023-05-21T03:48:03.541Z,29.62
2023-05-21T03:49:03.505Z,25.31
2023-05-21T03:50:03.502Z,28.68
2023-05-21T03:51:03.482Z,26.66
2023-05-21T03:52:03.489Z,28.76
2023-05-21T03:53:03.479Z,26.14
2023-05-21T03:54:03.465Z,29.50
2023-05-21T03:55:03.470Z,31.37
2023-05-21T03:56:03.470Z,29.42
2023-05-21T03:57:03.451Z,31.23
2023-05-21T03:58:03.441Z,27.50
2023-05-21T03:59:03.435Z,28.10
2023-05-21T04:00:03.433Z,30.98
2023-05-21T04:01:03.415Z,27.46
2023-05-21T04:02:03.452Z,28.21
2023-05-21T04:03:03.488Z,31.03
2023-05-21T04:04:03.524Z,29.34
2023-05-21T04:05:03.427Z,27.10
2023-05-21T04:06:03.388Z,30.13
2023-05-21T04:07:03.380Z,28.80
2023-05-21T04:08:03.377Z,27.15
2023-05-21T04:09:03.361Z,27.93
2023-05-21T04:10:03.368Z,28.79
2023-05-21T04:11:03.370Z,26.16
2023-05-21T04:12:03.377Z,26.82
2023-05-21T04:13:03.344Z,27.50
2023-05-21T04:14:03.334Z,30.45
2023-05-21T04:15:03.333Z,29.02
2023-05-21T04:16:03.423Z,27.45
2023-05-21T04:17:03.320Z,28.62
2023-05-21T04:18:03.398Z,27.29
2023-05-21T04:19:03.334Z,27.00
2023-05-21T04:20:03.300Z,28.40
2023-05-21T04:21:03.302Z,25.71
2023-05-21T04:22:03.286Z,29.76
2023-05-21T04:23:03.285Z,27.92
2023-05-21T04:24:03.283Z,27.65
2023-05-21T04:25:03.286Z,25.59
2023-05-21T04:26:03.279Z,29.32
2023-05-21T04:27:03.271Z,27.13
2023-05-21T04:28:03.273Z,26.45
2023-05-21T04:29:03.249Z,26.89
2023-05-21T04:30:03.273Z,28.78
2023-05-21T04:31:03.262Z,26.56
2023-05-21T04:32:03.231Z,29.96
2023-05-21T04:33:03.283Z,25.00
2023-05-21T04:34:03.219Z,28.70
2023-05-21T04:35:03.207Z,29.42
2023-05-21T04:36:03.208Z,27.48
2023-05-21T04:37:03.232Z,26.60
2023-05-21T04:38:04.331Z,25.00
2023-05-21T04:39:03.188Z,25.98
2023-05-21T04:40:03.224Z,25.60
2023-05-21T04:41:03.255Z,26.69
2023-05-21T04:42:03.337Z,28.00
2023-05-21T04:43:03.302Z,27.20
2023-05-21T04:44:03.333Z,30.95
2023-05-21T04:45:03.330Z,27.10
2023-05-21T04:46:03.357Z,31.56
2023-05-21T04:47:03.430Z,27.11
2023-05-21T04:48:03.422Z,29.39
2023-05-21T04:49:03.434Z,31.46
2023-05-21T04:50:03.468Z,27.50
2023-05-21T04:51:03.539Z,29.07
2023-05-21T04:52:03.556Z,28.60
2023-05-21T04:53:03.575Z,27.18
2023-05-21T04:54:03.601Z,29.31
2023-05-21T04:55:03.628Z,27.44
2023-05-21T04:56:03.649Z,26.97
2023-05-21T04:57:03.670Z,28.33
2023-05-21T04:58:03.664Z,28.22
2023-05-21T04:59:05.323Z,26.91
2023-05-21T05:00:03.699Z,32.00
2023-05-21T05:01:03.719Z,32.33
2023-05-21T05:02:03.662Z,29.82
2023-05-21T05:03:03.750Z,30.26
2023-05-21T05:04:03.781Z,30.38
2023-05-21T05:05:03.636Z,27.37
2023-05-21T05:06:03.625Z,29.10
2023-05-21T05:07:03.634Z,26.53
2023-05-21T05:08:03.631Z,27.29
2023-05-21T05:09:03.606Z,27.88
2023-05-21T05:10:03.599Z,28.86
2023-05-21T05:11:03.599Z,29.14
2023-05-21T05:12:03.590Z,28.61
2023-05-21T05:13:03.620Z,25.35
2023-05-21T05:14:03.588Z,26.34
2023-05-21T05:15:03.581Z,28.79
2023-05-21T05:16:03.687Z,28.23
2023-05-21T05:17:03.556Z,27.68
2023-05-21T05:18:03.655Z,27.73
2023-05-21T05:19:03.655Z,26.50
2023-05-21T05:20:03.539Z,27.81
2023-05-21T05:21:03.530Z,33.22
2023-05-21T05:22:03.525Z,31.24
2023-05-21T05:23:03.518Z,31.14
2023-05-21T05:24:03.511Z,27.09
2023-05-21T05:25:03.503Z,29.31
2023-05-21T05:26:03.506Z,29.68
2023-05-21T05:27:03.517Z,29.06
2023-05-21T05:28:03.488Z,31.11
2023-05-21T05:29:03.485Z,28.95
2023-05-21T05:30:03.484Z,28.86
2023-05-21T05:31:03.521Z,27.88
2023-05-21T05:32:03.482Z,28.60
2023-05-21T05:33:03.514Z,28.26
2023-05-21T05:34:03.438Z,27.87
2023-05-21T05:35:03.437Z,27.78
2023-05-21T05:36:03.428Z,30.57
2023-05-21T05:37:03.422Z,29.83
2023-05-21T05:38:03.409Z,27.82
2023-05-21T05:39:03.430Z,29.54
2023-05-21T05:40:03.391Z,29.45
2023-05-21T05:41:03.389Z,27.97
2023-05-21T05:42:03.398Z,29.10
2023-05-21T05:43:03.373Z,31.53
2023-05-21T05:44:03.379Z,26.52
2023-05-21T05:45:03.360Z,27.63
2023-05-21T05:46:03.433Z,27.51
2023-05-21T05:47:03.386Z,29.28
2023-05-21T05:48:03.430Z,31.05
2023-05-21T05:49:03.344Z,29.36
2023-05-21T05:50:03.333Z,28.41
2023-05-21T05:51:03.331Z,26.18
2023-05-21T05:52:03.336Z,29.86
2023-05-21T05:53:03.321Z,30.35
2023-05-21T05:54:03.308Z,28.61
2023-05-21T05:55:03.306Z,27.22
2023-05-21T05:56:03.294Z,28.40
2023-05-21T05:57:03.297Z,28.66
2023-05-21T05:58:03.291Z,30.73
2023-05-21T05:59:03.329Z,29.31
2023-05-21T06:00:03.369Z,30.18
2023-05-21T06:01:03.389Z,29.97
2023-05-21T06:02:03.404Z,29.42
2023-05-21T06:03:03.589Z,27.64
2023-05-21T06:04:03.500Z,27.44
2023-05-21T06:05:03.514Z,30.12
2023-05-21T06:06:03.614Z,28.55
2023-05-21T06:07:03.596Z,29.48
2023-05-21T06:08:03.589Z,31.43
2023-05-21T06:09:03.629Z,31.01
2023-05-21T06:10:03.654Z,31.14
2023-05-21T06:11:03.689Z,27.99
2023-05-21T06:12:03.719Z,29.39
2023-05-21T06:13:03.761Z,28.72
2023-05-21T06:14:03.796Z,28.95
2023-05-21T06:15:03.808Z,30.44
2023-05-21T06:16:03.885Z,30.19
2023-05-21T06:17:03.867Z,32.11
2023-05-21T06:18:03.928Z,27.79
2023-05-21T06:19:03.997Z,25.85
2023-05-21T06:20:04.000Z,29.19
2023-05-21T06:21:04.018Z,29.12
2023-05-21T06:22:04.034Z,30.54
2023-05-21T06:23:04.071Z,28.81
2023-05-21T06:24:04.104Z,28.06
2023-05-21T06:25:04.137Z,29.67
2023-05-21T06:26:04.205Z,28.97
2023-05-21T06:27:04.244Z,29.18
2023-05-21T06:28:04.287Z,28.42
2023-05-21T06:29:04.330Z,28.20
2023-05-21T06:30:04.400Z,30.94
2023-05-21T06:31:04.460Z,29.56
2023-05-21T06:32:04.486Z,31.21
2023-05-21T06:33:04.628Z,28.39
2023-05-21T06:34:04.700Z,29.12
2023-05-21T06:35:04.633Z,29.85
2023-05-21T06:36:04.682Z,26.78
2023-05-21T06:37:04.691Z,27.32
2023-05-21T06:38:04.733Z,27.73
2023-05-21T06:39:04.824Z,27.98
2023-05-21T06:40:04.827Z,29.73
2023-05-21T06:41:04.896Z,28.14
2023-05-21T06:42:04.923Z,29.65
2023-05-21T06:43:05.006Z,30.95
2023-05-21T06:44:05.024Z,32.16
2023-05-21T06:45:05.092Z,29.89
2023-05-21T06:46:05.174Z,28.02
2023-05-21T06:47:05.167Z,28.82
2023-05-21T06:48:05.283Z,29.08
2023-05-21T06:49:05.292Z,29.67
2023-05-21T06:50:05.305Z,28.24
2023-05-21T06:51:05.357Z,30.01
2023-05-21T06:52:05.430Z,31.54
2023-05-21T06:53:05.464Z,28.92
2023-05-21T06:54:05.520Z,26.65
2023-05-21T06:55:05.574Z,29.39
2023-05-21T06:56:05.622Z,28.11
2023-05-21T06:57:05.677Z,30.49
2023-05-21T06:58:05.730Z,29.52
2023-05-21T06:59:05.792Z,30.94
2023-05-21T07:00:05.862Z,28.74
2023-05-21T07:01:06.001Z,30.19
2023-05-21T07:02:06.024Z,28.36
2023-05-21T07:03:06.211Z,30.66
2023-05-21T07:04:06.109Z,30.08
2023-05-21T07:05:06.168Z,26.74
2023-05-21T07:06:06.227Z,30.82
2023-05-21T07:07:06.291Z,30.88
2023-05-21T07:08:06.380Z,29.36
2023-05-21T07:09:06.420Z,28.46
2023-05-21T07:10:06.475Z,30.25
2023-05-21T07:11:06.552Z,29.12
2023-05-21T07:12:06.628Z,29.89
2023-05-21T07:13:06.675Z,31.66
2023-05-21T07:14:06.752Z,31.44
2023-05-21T07:15:06.796Z,29.45
2023-05-21T07:16:06.867Z,32.58
2023-05-21T07:17:07.027Z,31.43
2023-05-21T07:18:07.113Z,30.08
2023-05-21T07:19:07.075Z,30.63
2023-05-21T07:20:07.115Z,29.33
2023-05-21T07:21:07.182Z,31.77
2023-05-21T07:22:07.237Z,29.34
2023-05-21T07:23:07.297Z,31.53
2023-05-21T07:24:07.388Z,30.29
2023-05-21T07:25:07.449Z,32.86
2023-05-21T07:26:07.486Z,32.08
2023-05-21T07:27:17.653Z,32.40
2023-05-21T07:28:07.536Z,32.76
2023-05-21T07:29:07.530Z,33.87
2023-05-21T07:30:07.528Z,32.67
2023-05-21T07:31:07.555Z,33.63
2023-05-21T07:32:07.509Z,32.73
2023-05-21T07:33:07.560Z,30.46
2023-05-21T07:34:07.492Z,31.56
2023-05-21T07:35:07.484Z,30.51
2023-05-21T07:36:07.472Z,30.36
2023-05-21T07:37:07.479Z,31.14
2023-05-21T07:38:07.490Z,31.80
2023-05-21T07:39:07.469Z,35.83
2023-05-21T07:40:07.486Z,32.50
2023-05-21T07:41:07.472Z,31.52
2023-05-21T07:42:07.441Z,31.34
2023-05-21T07:43:07.469Z,34.26
2023-05-21T07:44:07.446Z,32.15
2023-05-21T07:45:07.425Z,35.80
2023-05-21T07:46:07.444Z,34.32
2023-05-21T07:47:07.415Z,30.81
2023-05-21T07:48:07.421Z,31.14
2023-05-21T07:49:07.393Z,32.01
2023-05-21T07:50:07.395Z,34.44
2023-05-21T07:51:07.395Z,33.23
2023-05-21T07:52:07.458Z,34.23
2023-05-21T07:53:07.581Z,33.37
2023-05-21T07:54:07.584Z,33.07
2023-05-21T07:55:07.650Z,30.47
2023-05-21T07:56:07.727Z,30.50
2023-05-21T07:57:07.772Z,33.17
2023-05-21T07:58:07.831Z,30.93
2023-05-21T07:59:07.913Z,33.53
2023-05-21T08:00:07.952Z,32.73
2023-05-21T08:01:08.015Z,33.40
2023-05-21T08:02:08.071Z,32.22
2023-05-21T08:03:08.278Z,28.73
2023-05-21T08:04:08.323Z,30.83
2023-05-21T08:05:08.489Z,33.57
2023-05-21T08:06:08.339Z,32.12
2023-05-21T08:07:08.388Z,33.42
2023-05-21T08:08:08.458Z,31.06
2023-05-21T08:09:08.520Z,30.79
2023-05-21T08:10:08.583Z,31.73
2023-05-21T08:11:08.658Z,31.56
2023-05-21T08:12:08.710Z,32.18
2023-05-21T08:13:08.750Z,33.21
2023-05-21T08:14:08.817Z,32.51
2023-05-21T08:15:08.870Z,33.58
2023-05-21T08:16:09.042Z,33.06
2023-05-21T08:17:09.012Z,30.40
2023-05-21T08:18:09.163Z,34.05
2023-05-21T08:19:09.146Z,33.93
2023-05-21T08:20:09.178Z,31.69
2023-05-21T08:21:09.245Z,35.18
2023-05-21T08:22:09.294Z,33.15
2023-05-21T08:23:09.339Z,32.14
2023-05-21T08:24:09.407Z,32.31
2023-05-21T08:25:09.464Z,33.72
2023-05-21T08:26:09.530Z,34.69
2023-05-21T08:27:09.566Z,33.91
2023-05-21T08:28:09.645Z,34.02
2023-05-21T08:29:09.691Z,34.42
2023-05-21T08:30:09.750Z,34.71
2023-05-21T08:31:09.805Z,34.17
2023-05-21T08:32:10.055Z,34.59
2023-05-21T08:33:09.958Z,36.16
2023-05-21T08:34:09.977Z,34.96
2023-05-21T08:35:10.050Z,34.41
2023-05-21T08:36:10.086Z,31.99
2023-05-21T08:37:10.167Z,31.55
2023-05-21T08:38:10.184Z,36.98
2023-05-21T08:39:10.232Z,32.98
2023-05-21T08:40:10.307Z,36.50
2023-05-21T08:41:10.339Z,33.69
2023-05-21T08:42:10.376Z,33.15
2023-05-21T08:43:10.424Z,33.54
2023-05-21T08:44:10.605Z,34.53
2023-05-21T08:45:10.517Z,36.23
2023-05-21T08:46:10.597Z,35.16
2023-05-21T08:47:10.605Z,35.24
2023-05-21T08:48:10.655Z,35.78
2023-05-21T08:49:10.731Z,36.63
2023-05-21T08:50:10.746Z,34.20
2023-05-21T08:51:10.823Z,35.21
2023-05-21T08:52:10.843Z,37.79
2023-05-21T08:53:23.411Z,35.95
2023-05-21T08:54:10.870Z,36.33
2023-05-21T08:55:10.867Z,37.16
2023-05-21T08:56:10.863Z,38.39
2023-05-21T08:57:10.857Z,37.90
2023-05-21T08:58:10.851Z,37.57
2023-05-21T08:59:10.838Z,37.28
2023-05-21T09:00:10.866Z,37.17
2023-05-21T09:01:10.896Z,38.71
2023-05-21T09:02:10.832Z,36.22
2023-05-21T09:03:10.920Z,39.12
2023-05-21T09:04:20.088Z,36.00
2023-05-21T09:05:10.820Z,36.51
2023-05-21T09:06:10.834Z,37.67
2023-05-21T09:07:10.829Z,38.70
2023-05-21T09:08:10.801Z,38.74
2023-05-21T09:09:10.791Z,38.59
2023-05-21T09:10:10.777Z,38.41
2023-05-21T09:11:10.781Z,40.24
2023-05-21T09:12:10.763Z,40.28
2023-05-21T09:13:10.793Z,40.70
2023-05-21T09:14:10.759Z,39.60
2023-05-21T09:15:10.741Z,39.30
2023-05-21T09:16:10.795Z,40.78
2023-05-21T09:17:10.728Z,39.23
2023-05-21T09:18:10.762Z,40.19
2023-05-21T09:19:10.763Z,40.56
2023-05-21T09:20:10.708Z,41.03
2023-05-21T09:21:10.712Z,41.25
2023-05-21T09:22:10.700Z,40.12
2023-05-21T09:23:10.687Z,40.58
2023-05-21T09:24:10.690Z,41.23
2023-05-21T09:25:10.677Z,41.05
2023-05-21T09:26:10.676Z,41.69
2023-05-21T09:27:10.674Z,42.67
2023-05-21T09:28:10.660Z,39.70
2023-05-21T09:29:10.676Z,41.80
2023-05-21T09:30:10.646Z,38.95
2023-05-21T09:31:10.703Z,41.81
2023-05-21T09:32:10.660Z,41.87
2023-05-21T09:33:10.728Z,41.47
2023-05-21T09:34:10.745Z,42.72
2023-05-21T09:35:10.802Z,40.48
2023-05-21T09:36:10.848Z,40.99
2023-05-21T09:37:23.704Z,39.22
2023-05-21T09:38:10.892Z,39.67
2023-05-21T09:39:10.886Z,40.68
2023-05-21T09:40:10.884Z,40.58
2023-05-21T09:41:10.877Z,42.11
2023-05-21T09:42:10.877Z,42.55
2023-05-21T09:43:10.869Z,45.36
2023-05-21T09:44:10.867Z,42.64
2023-05-21T09:45:10.859Z,39.35
2023-05-21T09:46:10.862Z,41.92
2023-05-21T09:47:10.838Z,43.02
2023-05-21T09:48:10.860Z,44.55
2023-05-21T09:49:10.829Z,43.52
2023-05-21T09:50:10.821Z,43.15
2023-05-21T09:51:10.818Z,42.64
2023-05-21T09:52:10.822Z,41.13
2023-05-21T09:53:10.798Z,41.01
2023-05-21T09:54:10.797Z,45.45
2023-05-21T09:55:10.787Z,45.80
2023-05-21T09:56:10.787Z,43.65
2023-05-21T09:57:10.780Z,43.43
2023-05-21T09:58:10.775Z,44.86
2023-05-21T09:59:10.766Z,43.41
2023-05-21T10:00:10.755Z,45.23
2023-05-21T10:01:10.753Z,44.17
2023-05-21T10:02:10.827Z,45.92
2023-05-21T10:03:10.780Z,44.20
2023-05-21T10:04:10.802Z,45.25
2023-05-21T10:05:10.736Z,44.58
2023-05-21T10:06:10.725Z,44.06
2023-05-21T10:07:10.714Z,43.52
2023-05-21T10:08:10.756Z,44.65
2023-05-21T10:09:10.847Z,45.96
2023-05-21T10:10:10.850Z,44.43
2023-05-21T10:11:10.900Z,43.40
2023-05-21T10:12:10.952Z,46.14
2023-05-21T10:13:10.989Z,46.49
2023-05-21T10:14:11.041Z,44.13
2023-05-21T10:15:11.092Z,43.86
2023-05-21T10:16:11.180Z,44.80
2023-05-21T10:17:11.170Z,45.43
2023-05-21T10:18:11.270Z,44.06
2023-05-21T10:19:11.357Z,45.19
2023-05-21T10:20:11.416Z,45.36
2023-05-21T10:21:11.369Z,45.38
2023-05-21T10:22:11.405Z,45.10
2023-05-21T10:23:11.441Z,43.34
2023-05-21T10:24:11.494Z,46.48
2023-05-21T10:25:11.531Z,45.23
2023-05-21T10:26:11.575Z,42.20
2023-05-21T10:27:11.634Z,43.98
2023-05-21T10:28:11.688Z,44.84
2023-05-21T10:29:11.721Z,45.41
2023-05-21T10:30:11.755Z,45.42
2023-05-21T10:31:11.783Z,44.43
2023-05-21T10:32:11.896Z,46.63
2023-05-21T10:33:11.908Z,43.47
2023-05-21T10:34:11.923Z,43.26
2023-05-21T10:35:11.966Z,47.97
2023-05-21T10:36:12.026Z,42.30
2023-05-21T10:37:12.049Z,44.54
2023-05-21T10:38:12.082Z,46.96
2023-05-21T10:39:12.127Z,44.09
2023-05-21T10:40:12.168Z,48.03
2023-05-21T10:41:12.215Z,45.05
2023-05-21T10:42:12.263Z,44.37
2023-05-21T10:43:12.300Z,45.13
2023-05-21T10:44:12.338Z,45.73
2023-05-21T10:45:12.383Z,45.82
2023-05-21T10:46:12.537Z,45.40
2023-05-21T10:47:12.466Z,48.08
2023-05-21T10:48:12.525Z,45.19
2023-05-21T10:49:12.552Z,44.18
2023-05-21T10:50:12.590Z,47.05
2023-05-21T10:51:12.643Z,47.79
2023-05-21T10:52:12.688Z,47.53
2023-05-21T10:53:12.714Z,46.75
2023-05-21T10:54:12.762Z,45.52
2023-05-21T10:55:12.814Z,45.49
2023-05-21T10:56:12.838Z,48.07
2023-05-21T10:57:12.894Z,47.66
2023-05-21T10:58:12.924Z,49.03
2023-05-21T10:59:12.971Z,47.79
2023-05-21T11:00:13.011Z,49.59
2023-05-21T11:01:13.105Z,46.46
2023-05-21T11:02:13.153Z,45.02
2023-05-21T11:03:13.298Z,51.50
2023-05-21T11:04:13.185Z,45.86
2023-05-21T11:05:13.236Z,46.14
2023-05-21T11:06:13.266Z,48.36
2023-05-21T11:07:13.313Z,50.00
2023-05-21T11:08:13.392Z,49.38
2023-05-21T11:09:13.389Z,49.21
2023-05-21T11:10:13.426Z,51.13
2023-05-21T11:11:13.470Z,46.95
2023-05-21T11:12:13.490Z,48.49
2023-05-21T11:13:13.528Z,49.77
2023-05-21T11:14:13.569Z,46.99
2023-05-21T11:15:13.599Z,50.01
2023-05-21T11:16:13.636Z,47.16
2023-05-21T11:17:13.879Z,47.01
2023-05-21T11:18:13.704Z,51.83
2023-05-21T11:19:13.759Z,49.78
2023-05-21T11:20:13.851Z,51.11
2023-05-21T11:21:13.857Z,52.89
2023-05-21T11:22:13.835Z,52.61
2023-05-21T11:23:13.878Z,51.86
2023-05-21T11:24:13.934Z,49.60
2023-05-21T11:25:13.951Z,51.87
2023-05-21T11:26:13.982Z,52.26
2023-05-21T11:27:14.024Z,51.22
2023-05-21T11:28:14.065Z,48.97
2023-05-21T11:29:14.086Z,53.25
2023-05-21T11:30:14.147Z,49.27
2023-05-21T11:31:14.194Z,50.85
2023-05-21T11:32:14.202Z,51.28
2023-05-21T11:33:14.379Z,52.28
2023-05-21T11:34:14.277Z,49.04
2023-05-21T11:35:14.313Z,53.67
2023-05-21T11:36:14.345Z,48.54
2023-05-21T11:37:14.375Z,52.13
2023-05-21T11:38:14.408Z,51.37
2023-05-21T11:39:14.442Z,51.01
2023-05-21T11:40:14.512Z,54.40
2023-05-21T11:41:14.521Z,54.64
2023-05-21T11:42:14.552Z,54.73
2023-05-21T11:43:14.599Z,52.96
2023-05-21T11:44:14.620Z,53.39
2023-05-21T11:45:14.659Z,50.92
2023-05-21T11:46:14.731Z,53.10
2023-05-21T11:47:14.730Z,53.22
2023-05-21T11:48:14.769Z,52.17
2023-05-21T11:49:14.799Z,54.07
2023-05-21T11:50:14.839Z,53.49
2023-05-21T11:51:14.873Z,52.50
2023-05-21T11:52:14.969Z,52.72
2023-05-21T11:53:14.941Z,54.00
2023-05-21T11:54:14.979Z,53.11
2023-05-21T11:55:15.015Z,53.94
2023-05-21T11:56:15.153Z,54.31
2023-05-21T11:57:15.093Z,56.02
2023-05-21T11:58:15.131Z,52.90
2023-05-21T11:59:17.878Z,51.40
2023-05-21T12:00:15.147Z,51.72
2023-05-21T12:01:15.156Z,52.10
2023-05-21T12:02:15.144Z,54.40
2023-05-21T12:03:15.193Z,54.74
2023-05-21T12:04:15.125Z,55.62
2023-05-21T12:05:15.127Z,54.60
2023-05-21T12:06:15.136Z,55.83
2023-05-21T12:07:15.098Z,57.11
2023-05-21T12:08:15.085Z,56.69
2023-05-21T12:09:15.081Z,56.69
2023-05-21T12:10:15.085Z,50.38
2023-05-21T12:11:15.077Z,55.92
2023-05-21T12:12:15.159Z,56.59
2023-05-21T12:13:15.069Z,55.94
2023-05-21T12:14:15.143Z,54.22
2023-05-21T12:15:15.040Z,56.59
2023-05-21T12:16:15.069Z,54.87
2023-05-21T12:17:15.033Z,54.57
2023-05-21T12:18:15.073Z,58.20
2023-05-21T12:19:15.051Z,57.87
2023-05-21T12:20:15.020Z,54.48
2023-05-21T12:21:15.005Z,53.92
2023-05-21T12:22:15.002Z,58.29
2023-05-21T12:23:14.995Z,56.80
2023-05-21T12:24:14.999Z,55.52
2023-05-21T12:25:14.984Z,57.65
2023-05-21T12:26:15.009Z,57.49
2023-05-21T12:27:15.039Z,58.66
2023-05-21T12:28:15.096Z,57.11
2023-05-21T12:29:15.097Z,58.07
2023-05-21T12:30:15.136Z,58.97
2023-05-21T12:31:15.218Z,58.78
2023-05-21T12:32:15.187Z,56.49
2023-05-21T12:33:15.217Z,59.38
2023-05-21T12:34:15.256Z,58.00
2023-05-21T12:35:15.303Z,57.33
2023-05-21T12:36:15.327Z,59.09
2023-05-21T12:37:15.350Z,58.82
2023-05-21T12:38:15.385Z,59.70
2023-05-21T12:39:15.419Z,57.13
2023-05-21T12:40:15.459Z,55.40
2023-05-21T12:41:15.480Z,59.82
2023-05-21T12:42:15.533Z,59.20
2023-05-21T12:43:15.549Z,58.63
2023-05-21T12:44:15.595Z,59.54
2023-05-21T12:45:15.598Z,59.48
2023-05-21T12:46:15.717Z,59.53
2023-05-21T12:47:15.668Z,60.73
2023-05-21T12:48:15.699Z,62.97
2023-05-21T12:49:15.728Z,61.09
2023-05-21T12:50:15.755Z,59.53
2023-05-21T12:51:15.780Z,61.08
2023-05-21T12:52:15.810Z,59.98